sensor_id;sensor_type;location;lat;lon;timestamp;temperature;humidity
13093;DHT22;6612;49.568;11.000;2023-04-06T00:00:52;4.20;42.40
13093;DHT22;6612;49.568;11.000;2023-04-06T00:03:19;4.20;42.50
13093;DHT22;6612;49.568;11.000;2023-04-06T00:05:48;4.20;42.60
13093;DHT22;6612;49.568;11.000;2023-04-06T00:08:15;4.10;42.70
13093;DHT22;6612;49.568;11.000;2023-04-06T00:10:42;4.10;42.80
13093;DHT22;6612;49.568;11.000;2023-04-06T00:13:09;4.10;43.00
13093;DHT22;6612;49.568;11.000;2023-04-06T00:15:36;4.00;43.00
13093;DHT22;6612;49.568;11.000;2023-04-06T00:18:03;4.00;43.10
13093;DHT22;6612;49.568;11.000;2023-04-06T00:20:30;4.00;43.10
13093;DHT22;6612;49.568;11.000;2023-04-06T00:22:59;3.90;43.20
13093;DHT22;6612;49.568;11.000;2023-04-06T00:25:26;4.00;43.40
13093;DHT22;6612;49.568;11.000;2023-04-06T00:27:53;3.90;43.50
13093;DHT22;6612;49.568;11.000;2023-04-06T00:30:20;3.90;43.50
13093;DHT22;6612;49.568;11.000;2023-04-06T00:32:47;3.90;43.50
13093;DHT22;6612;49.568;11.000;2023-04-06T00:35:15;3.90;43.50
13093;DHT22;6612;49.568;11.000;2023-04-06T00:37:42;3.80;43.50
13093;DHT22;6612;49.568;11.000;2023-04-06T00:40:11;3.80;43.60
13093;DHT22;6612;49.568;11.000;2023-04-06T00:42:38;3.80;43.70
13093;DHT22;6612;49.568;11.000;2023-04-06T00:45:06;3.80;43.70
13093;DHT22;6612;49.568;11.000;2023-04-06T00:47:34;3.70;43.80
13093;DHT22;6612;49.568;11.000;2023-04-06T00:50:01;3.70;43.90
13093;DHT22;6612;49.568;11.000;2023-04-06T00:52:28;3.70;44.00
13093;DHT22;6612;49.568;11.000;2023-04-06T00:54:55;3.70;44.00
13093;DHT22;6612;49.568;11.000;2023-04-06T00:57:24;3.70;44.80
13093;DHT22;6612;49.568;11.000;2023-04-06T00:59:52;3.60;44.10
13093;DHT22;6612;49.568;11.000;2023-04-06T01:02:19;3.60;44.10
13093;DHT22;6612;49.568;11.000;2023-04-06T01:04:46;3.60;44.10
13093;DHT22;6612;49.568;11.000;2023-04-06T01:07:13;3.60;44.10
13093;DHT22;6612;49.568;11.000;2023-04-06T01:09:40;3.60;44.20
13093;DHT22;6612;49.568;11.000;2023-04-06T01:12:08;3.50;44.20
13093;DHT22;6612;49.568;11.000;2023-04-06T01:14:36;3.50;44.30
13093;DHT22;6612;49.568;11.000;2023-04-06T01:17:03;3.50;44.40
13093;DHT22;6612;49.568;11.000;2023-04-06T01:19:30;3.50;44.40
13093;DHT22;6612;49.568;11.000;2023-04-06T01:21:57;3.50;44.50
13093;DHT22;6612;49.568;11.000;2023-04-06T01:24:26;3.40;44.40
13093;DHT22;6612;49.568;11.000;2023-04-06T01:26:53;3.40;44.40
13093;DHT22;6612;49.568;11.000;2023-04-06T01:29:21;3.40;44.40
13093;DHT22;6612;49.568;11.000;2023-04-06T01:31:48;3.40;44.40
13093;DHT22;6612;49.568;11.000;2023-04-06T01:34:16;3.40;44.40
13093;DHT22;6612;49.568;11.000;2023-04-06T01:36:43;3.30;44.50
13093;DHT22;6612;49.568;11.000;2023-04-06T01:39:10;3.30;44.60
13093;DHT22;6612;49.568;11.000;2023-04-06T01:41:38;3.30;44.70
13093;DHT22;6612;49.568;11.000;2023-04-06T01:44:06;3.30;44.80
13093;DHT22;6612;49.568;11.000;2023-04-06T01:46:33;3.20;44.70
13093;DHT22;6612;49.568;11.000;2023-04-06T01:49:00;3.30;44.80
13093;DHT22;6612;49.568;11.000;2023-04-06T01:51:27;3.20;44.90
13093;DHT22;6612;49.568;11.000;2023-04-06T01:53:54;3.20;44.90
13093;DHT22;6612;49.568;11.000;2023-04-06T01:56:21;3.20;44.90
13093;DHT22;6612;49.568;11.000;2023-04-06T01:58:49;3.20;45.00
13093;DHT22;6612;49.568;11.000;2023-04-06T02:01:16;3.20;45.10
13093;DHT22;6612;49.568;11.000;2023-04-06T02:03:43;3.10;45.00
13093;DHT22;6612;49.568;11.000;2023-04-06T02:06:11;3.10;45.10
13093;DHT22;6612;49.568;11.000;2023-04-06T02:08:38;3.10;45.10
13093;DHT22;6612;49.568;11.000;2023-04-06T02:11:05;3.10;45.10
13093;DHT22;6612;49.568;11.000;2023-04-06T02:13:32;3.10;45.10
13093;DHT22;6612;49.568;11.000;2023-04-06T02:16:01;3.10;45.20
13093;DHT22;6612;49.568;11.000;2023-04-06T02:18:29;3.10;45.20
13093;DHT22;6612;49.568;11.000;2023-04-06T02:20:56;3.00;45.20
13093;DHT22;6612;49.568;11.000;2023-04-06T02:23:23;3.00;45.10
13093;DHT22;6612;49.568;11.000;2023-04-06T02:25:50;3.00;45.20
13093;DHT22;6612;49.568;11.000;2023-04-06T02:28:17;3.00;45.20
13093;DHT22;6612;49.568;11.000;2023-04-06T02:30:44;2.90;45.20
13093;DHT22;6612;49.568;11.000;2023-04-06T02:33:13;2.90;45.30
13093;DHT22;6612;49.568;11.000;2023-04-06T02:35:40;2.90;45.30
13093;DHT22;6612;49.568;11.000;2023-04-06T02:38:07;2.90;45.40
13093;DHT22;6612;49.568;11.000;2023-04-06T02:40:34;2.90;45.40
13093;DHT22;6612;49.568;11.000;2023-04-06T02:43:01;2.90;45.40
13093;DHT22;6612;49.568;11.000;2023-04-06T02:45:28;2.80;45.40
13093;DHT22;6612;49.568;11.000;2023-04-06T02:47:56;2.80;45.40
13093;DHT22;6612;49.568;11.000;2023-04-06T02:50:24;2.80;45.40
13093;DHT22;6612;49.568;11.000;2023-04-06T02:52:52;2.80;45.60
13093;DHT22;6612;49.568;11.000;2023-04-06T02:55:19;2.80;45.60
13093;DHT22;6612;49.568;11.000;2023-04-06T02:57:46;2.70;45.60
13093;DHT22;6612;49.568;11.000;2023-04-06T03:00:13;2.70;45.60
13093;DHT22;6612;49.568;11.000;2023-04-06T03:02:41;2.70;45.60
13093;DHT22;6612;49.568;11.000;2023-04-06T03:05:08;2.70;45.60
13093;DHT22;6612;49.568;11.000;2023-04-06T03:07:37;2.70;45.70
13093;DHT22;6612;49.568;11.000;2023-04-06T03:10:05;2.70;45.70
13093;DHT22;6612;49.568;11.000;2023-04-06T03:12:32;2.70;45.70
13093;DHT22;6612;49.568;11.000;2023-04-06T03:14:59;2.70;45.70
13093;DHT22;6612;49.568;11.000;2023-04-06T03:17:26;2.60;45.70
13093;DHT22;6612;49.568;11.000;2023-04-06T03:19:53;2.60;45.70
13093;DHT22;6612;49.568;11.000;2023-04-06T03:22:20;2.60;45.80
13093;DHT22;6612;49.568;11.000;2023-04-06T03:24:48;2.60;45.70
13093;DHT22;6612;49.568;11.000;2023-04-06T03:27:16;2.50;45.70
13093;DHT22;6612;49.568;11.000;2023-04-06T03:29:43;2.50;45.60
13093;DHT22;6612;49.568;11.000;2023-04-06T03:32:10;2.50;45.80
13093;DHT22;6612;49.568;11.000;2023-04-06T03:34:37;2.50;45.90
13093;DHT22;6612;49.568;11.000;2023-04-06T03:37:04;2.50;46.00
13093;DHT22;6612;49.568;11.000;2023-04-06T03:39:31;2.50;46.10
13093;DHT22;6612;49.568;11.000;2023-04-06T03:42:00;2.40;46.10
13093;DHT22;6612;49.568;11.000;2023-04-06T03:44:27;2.40;46.10
13093;DHT22;6612;49.568;11.000;2023-04-06T03:46:54;2.40;46.10
13093;DHT22;6612;49.568;11.000;2023-04-06T03:49:21;2.40;46.10
13093;DHT22;6612;49.568;11.000;2023-04-06T03:51:48;2.40;46.10
13093;DHT22;6612;49.568;11.000;2023-04-06T03:54:15;2.40;46.20
13093;DHT22;6612;49.568;11.000;2023-04-06T03:56:42;2.30;46.20
13093;DHT22;6612;49.568;11.000;2023-04-06T03:59:11;2.30;46.30
13093;DHT22;6612;49.568;11.000;2023-04-06T04:01:38;2.30;46.40
13093;DHT22;6612;49.568;11.000;2023-04-06T04:04:05;2.30;46.30
13093;DHT22;6612;49.568;11.000;2023-04-06T04:06:33;2.30;46.30
13093;DHT22;6612;49.568;11.000;2023-04-06T04:09:02;2.30;46.40
13093;DHT22;6612;49.568;11.000;2023-04-06T04:11:29;2.20;46.40
13093;DHT22;6612;49.568;11.000;2023-04-06T04:13:56;2.20;46.50
13093;DHT22;6612;49.568;11.000;2023-04-06T04:16:24;2.20;46.50
13093;DHT22;6612;49.568;11.000;2023-04-06T04:18:52;2.20;46.60
13093;DHT22;6612;49.568;11.000;2023-04-06T04:21:19;2.20;46.50
13093;DHT22;6612;49.568;11.000;2023-04-06T04:23:46;2.20;46.60
13093;DHT22;6612;49.568;11.000;2023-04-06T04:26:13;2.20;46.60
13093;DHT22;6612;49.568;11.000;2023-04-06T04:28:40;2.20;46.70
13093;DHT22;6612;49.568;11.000;2023-04-06T04:31:07;2.10;46.60
13093;DHT22;6612;49.568;11.000;2023-04-06T04:33:36;2.10;46.60
13093;DHT22;6612;49.568;11.000;2023-04-06T04:36:03;2.10;46.80
13093;DHT22;6612;49.568;11.000;2023-04-06T04:38:31;2.10;46.80
13093;DHT22;6612;49.568;11.000;2023-04-06T04:40:58;2.10;46.80
13093;DHT22;6612;49.568;11.000;2023-04-06T04:43:25;2.10;46.90
13093;DHT22;6612;49.568;11.000;2023-04-06T04:45:52;2.10;46.90
13093;DHT22;6612;49.568;11.000;2023-04-06T04:48:19;2.10;46.90
13093;DHT22;6612;49.568;11.000;2023-04-06T04:50:47;2.10;47.00
13093;DHT22;6612;49.568;11.000;2023-04-06T04:53:14;2.10;47.00
13093;DHT22;6612;49.568;11.000;2023-04-06T04:55:42;2.10;47.00
13093;DHT22;6612;49.568;11.000;2023-04-06T04:58:09;2.00;47.10
13093;DHT22;6612;49.568;11.000;2023-04-06T05:00:39;2.10;47.20
13093;DHT22;6612;49.568;11.000;2023-04-06T05:03:07;2.10;47.30
13093;DHT22;6612;49.568;11.000;2023-04-06T05:05:34;2.10;47.40
13093;DHT22;6612;49.568;11.000;2023-04-06T05:08:03;2.10;47.50
13093;DHT22;6612;49.568;11.000;2023-04-06T05:10:30;2.10;47.60
13093;DHT22;6612;49.568;11.000;2023-04-06T05:12:58;2.20;48.00
13093;DHT22;6612;49.568;11.000;2023-04-06T05:15:25;2.30;49.20
13093;DHT22;6612;49.568;11.000;2023-04-06T05:17:52;2.60;49.30
13093;DHT22;6612;49.568;11.000;2023-04-06T05:20:19;2.80;49.90
13093;DHT22;6612;49.568;11.000;2023-04-06T05:22:46;3.10;50.10
13093;DHT22;6612;49.568;11.000;2023-04-06T05:25:15;3.40;50.40
13093;DHT22;6612;49.568;11.000;2023-04-06T05:27:42;3.70;50.10
13093;DHT22;6612;49.568;11.000;2023-04-06T05:30:09;3.90;49.30
13093;DHT22;6612;49.568;11.000;2023-04-06T05:32:36;4.10;48.60
13093;DHT22;6612;49.568;11.000;2023-04-06T05:35:04;4.20;48.00
13093;DHT22;6612;49.568;11.000;2023-04-06T05:37:31;4.30;47.80
13093;DHT22;6612;49.568;11.000;2023-04-06T05:39:58;4.40;48.20
13093;DHT22;6612;49.568;11.000;2023-04-06T05:42:27;4.60;49.00
13093;DHT22;6612;49.568;11.000;2023-04-06T05:44:55;4.90;49.80
13093;DHT22;6612;49.568;11.000;2023-04-06T05:47:22;5.20;50.40
13093;DHT22;6612;49.568;11.000;2023-04-06T05:49:49;5.60;50.70
13093;DHT22;6612;49.568;11.000;2023-04-06T05:52:16;6.00;51.00
13093;DHT22;6612;49.568;11.000;2023-04-06T05:54:43;6.50;51.40
13093;DHT22;6612;49.568;11.000;2023-04-06T05:57:10;6.90;51.90
13093;DHT22;6612;49.568;11.000;2023-04-06T05:59:39;7.50;52.40
13093;DHT22;6612;49.568;11.000;2023-04-06T06:02:06;8.10;52.50
13093;DHT22;6612;49.568;11.000;2023-04-06T06:04:33;8.60;52.50
13093;DHT22;6612;49.568;11.000;2023-04-06T06:07:00;9.20;52.30
13093;DHT22;6612;49.568;11.000;2023-04-06T06:09:27;9.80;52.00
13093;DHT22;6612;49.568;11.000;2023-04-06T06:11:54;10.30;50.70
13093;DHT22;6612;49.568;11.000;2023-04-06T06:14:21;10.80;50.50
13093;DHT22;6612;49.568;11.000;2023-04-06T06:16:49;11.40;50.60
13093;DHT22;6612;49.568;11.000;2023-04-06T06:19:17;11.90;50.00
13093;DHT22;6612;49.568;11.000;2023-04-06T06:21:44;12.50;49.80
13093;DHT22;6612;49.568;11.000;2023-04-06T06:24:11;13.00;49.90
13093;DHT22;6612;49.568;11.000;2023-04-06T06:26:38;13.60;49.90
13093;DHT22;6612;49.568;11.000;2023-04-06T06:29:05;14.20;49.50
13093;DHT22;6612;49.568;11.000;2023-04-06T06:31:32;14.70;49.10
13093;DHT22;6612;49.568;11.000;2023-04-06T06:34:02;15.20;48.70
13093;DHT22;6612;49.568;11.000;2023-04-06T06:36:29;15.70;47.70
13093;DHT22;6612;49.568;11.000;2023-04-06T06:38:57;16.10;47.10
13093;DHT22;6612;49.568;11.000;2023-04-06T06:41:26;16.60;46.80
13093;DHT22;6612;49.568;11.000;2023-04-06T06:43:53;17.00;46.50
13093;DHT22;6612;49.568;11.000;2023-04-06T06:46:20;17.50;46.30
13093;DHT22;6612;49.568;11.000;2023-04-06T06:48:47;17.90;45.50
13093;DHT22;6612;49.568;11.000;2023-04-06T06:51:15;18.40;44.90
13093;DHT22;6612;49.568;11.000;2023-04-06T06:53:43;18.90;44.20
13093;DHT22;6612;49.568;11.000;2023-04-06T06:56:10;19.20;43.90
13093;DHT22;6612;49.568;11.000;2023-04-06T06:58:38;19.70;43.60
13093;DHT22;6612;49.568;11.000;2023-04-06T07:01:05;19.90;42.50
13093;DHT22;6612;49.568;11.000;2023-04-06T07:03:32;20.20;41.50
13093;DHT22;6612;49.568;11.000;2023-04-06T07:05:59;20.40;40.40
13093;DHT22;6612;49.568;11.000;2023-04-06T07:08:28;20.50;40.00
13093;DHT22;6612;49.568;11.000;2023-04-06T07:10:55;20.60;39.80
13093;DHT22;6612;49.568;11.000;2023-04-06T07:13:22;20.80;40.10
13093;DHT22;6612;49.568;11.000;2023-04-06T07:15:49;21.00;39.80
13093;DHT22;6612;49.568;11.000;2023-04-06T07:18:17;21.30;39.50
13093;DHT22;6612;49.568;11.000;2023-04-06T07:20:44;21.50;39.20
13093;DHT22;6612;49.568;11.000;2023-04-06T07:23:11;21.70;38.50
13093;DHT22;6612;49.568;11.000;2023-04-06T07:25:40;21.90;38.40
13093;DHT22;6612;49.568;11.000;2023-04-06T07:28:07;22.10;37.80
13093;DHT22;6612;49.568;11.000;2023-04-06T07:30:34;22.30;38.10
13093;DHT22;6612;49.568;11.000;2023-04-06T07:33:01;22.40;37.90
13093;DHT22;6612;49.568;11.000;2023-04-06T07:35:28;22.60;37.30
13093;DHT22;6612;49.568;11.000;2023-04-06T07:37:56;22.80;37.00
13093;DHT22;6612;49.568;11.000;2023-04-06T07:40:24;22.90;36.40
13093;DHT22;6612;49.568;11.000;2023-04-06T07:42:53;22.90;35.40
13093;DHT22;6612;49.568;11.000;2023-04-06T07:45:20;22.80;34.30
13093;DHT22;6612;49.568;11.000;2023-04-06T07:47:47;22.70;34.30
13093;DHT22;6612;49.568;11.000;2023-04-06T07:50:15;22.50;33.20
13093;DHT22;6612;49.568;11.000;2023-04-06T07:52:43;22.30;33.30
13093;DHT22;6612;49.568;11.000;2023-04-06T07:55:10;22.20;33.30
13093;DHT22;6612;49.568;11.000;2023-04-06T07:57:37;22.10;32.60
13093;DHT22;6612;49.568;11.000;2023-04-06T08:00:06;22.00;32.50
13093;DHT22;6612;49.568;11.000;2023-04-06T08:02:34;21.80;32.00
13093;DHT22;6612;49.568;11.000;2023-04-06T08:05:02;21.60;32.60
13093;DHT22;6612;49.568;11.000;2023-04-06T08:07:29;21.60;32.10
13093;DHT22;6612;49.568;11.000;2023-04-06T08:09:56;21.50;32.40
13093;DHT22;6612;49.568;11.000;2023-04-06T08:12:23;21.40;32.20
13093;DHT22;6612;49.568;11.000;2023-04-06T08:14:50;21.30;31.90
13093;DHT22;6612;49.568;11.000;2023-04-06T08:17:18;21.10;31.50
13093;DHT22;6612;49.568;11.000;2023-04-06T08:19:45;21.00;31.30
13093;DHT22;6612;49.568;11.000;2023-04-06T08:22:13;20.80;30.90
13093;DHT22;6612;49.568;11.000;2023-04-06T08:24:40;20.60;31.00
13093;DHT22;6612;49.568;11.000;2023-04-06T08:27:07;20.40;31.10
13093;DHT22;6612;49.568;11.000;2023-04-06T08:29:34;20.10;31.50
13093;DHT22;6612;49.568;11.000;2023-04-06T08:32:01;20.00;32.40
13093;DHT22;6612;49.568;11.000;2023-04-06T08:34:32;20.00;33.50
13093;DHT22;6612;49.568;11.000;2023-04-06T08:36:59;20.20;34.70
13093;DHT22;6612;49.568;11.000;2023-04-06T08:39:26;20.50;35.30
13093;DHT22;6612;49.568;11.000;2023-04-06T08:41:53;21.00;35.00
13093;DHT22;6612;49.568;11.000;2023-04-06T08:44:22;21.40;35.40
13093;DHT22;6612;49.568;11.000;2023-04-06T08:46:50;21.70;34.60
13093;DHT22;6612;49.568;11.000;2023-04-06T08:49:18;22.10;34.20
13093;DHT22;6612;49.568;11.000;2023-04-06T08:51:47;22.40;34.70
13093;DHT22;6612;49.568;11.000;2023-04-06T08:54:14;22.90;34.60
13093;DHT22;6612;49.568;11.000;2023-04-06T08:56:42;23.20;34.30
13093;DHT22;6612;49.568;11.000;2023-04-06T08:59:10;23.50;33.60
13093;DHT22;6612;49.568;11.000;2023-04-06T09:01:39;23.80;33.60
13093;DHT22;6612;49.568;11.000;2023-04-06T09:04:08;24.00;33.30
13093;DHT22;6612;49.568;11.000;2023-04-06T09:06:36;24.20;33.40
13093;DHT22;6612;49.568;11.000;2023-04-06T09:09:05;24.50;33.20
13093;DHT22;6612;49.568;11.000;2023-04-06T09:11:42;24.70;32.70
13093;DHT22;6612;49.568;11.000;2023-04-06T09:14:09;24.90;30.10
13093;DHT22;6612;49.568;11.000;2023-04-06T09:16:39;25.10;32.00
13093;DHT22;6612;49.568;11.000;2023-04-06T09:19:07;25.20;30.80
13093;DHT22;6612;49.568;11.000;2023-04-06T09:21:34;25.20;30.90
13093;DHT22;6612;49.568;11.000;2023-04-06T09:24:03;25.10;30.20
13093;DHT22;6612;49.568;11.000;2023-04-06T09:26:31;25.10;29.80
13093;DHT22;6612;49.568;11.000;2023-04-06T09:29:00;25.00;29.40
13093;DHT22;6612;49.568;11.000;2023-04-06T09:31:30;24.80;29.30
13093;DHT22;6612;49.568;11.000;2023-04-06T09:33:59;24.70;28.60
13093;DHT22;6612;49.568;11.000;2023-04-06T09:36:30;24.40;27.40
13093;DHT22;6612;49.568;11.000;2023-04-06T09:39:00;24.10;26.70
13093;DHT22;6612;49.568;11.000;2023-04-06T09:41:28;23.70;27.40
13093;DHT22;6612;49.568;11.000;2023-04-06T09:44:04;23.40;27.50
13093;DHT22;6612;49.568;11.000;2023-04-06T09:46:32;23.00;26.80
13093;DHT22;6612;49.568;11.000;2023-04-06T09:49:01;22.70;27.10
13093;DHT22;6612;49.568;11.000;2023-04-06T09:51:31;22.30;26.80
13093;DHT22;6612;49.568;11.000;2023-04-06T09:53:59;21.90;26.80
13093;DHT22;6612;49.568;11.000;2023-04-06T09:56:30;21.60;27.30
13093;DHT22;6612;49.568;11.000;2023-04-06T09:59:04;21.40;27.70
13093;DHT22;6612;49.568;11.000;2023-04-06T10:01:36;21.20;27.30
13093;DHT22;6612;49.568;11.000;2023-04-06T10:04:12;21.10;27.50
13093;DHT22;6612;49.568;11.000;2023-04-06T10:06:40;21.10;27.00
13093;DHT22;6612;49.568;11.000;2023-04-06T10:09:08;21.00;28.10
13093;DHT22;6612;49.568;11.000;2023-04-06T10:11:35;20.80;28.30
13093;DHT22;6612;49.568;11.000;2023-04-06T10:14:04;20.80;28.60
13093;DHT22;6612;49.568;11.000;2023-04-06T10:16:32;20.70;28.80
13093;DHT22;6612;49.568;11.000;2023-04-06T10:19:05;20.70;29.30
13093;DHT22;6612;49.568;11.000;2023-04-06T10:21:34;20.80;28.60
13093;DHT22;6612;49.568;11.000;2023-04-06T10:24:08;21.00;29.90
13093;DHT22;6612;49.568;11.000;2023-04-06T10:26:36;21.20;29.60
13093;DHT22;6612;49.568;11.000;2023-04-06T10:29:05;21.50;30.20
13093;DHT22;6612;49.568;11.000;2023-04-06T10:31:32;21.80;30.20
13093;DHT22;6612;49.568;11.000;2023-04-06T10:34:01;22.10;30.70
13093;DHT22;6612;49.568;11.000;2023-04-06T10:36:32;22.40;30.50
13093;DHT22;6612;49.568;11.000;2023-04-06T10:39:00;22.70;29.90
13093;DHT22;6612;49.568;11.000;2023-04-06T10:41:35;22.80;29.80
13093;DHT22;6612;49.568;11.000;2023-04-06T10:44:03;23.00;28.80
13093;DHT22;6612;49.568;11.000;2023-04-06T10:46:32;23.10;28.90
13093;DHT22;6612;49.568;11.000;2023-04-06T10:49:10;23.30;28.90
13093;DHT22;6612;49.568;11.000;2023-04-06T10:51:38;23.40;27.30
13093;DHT22;6612;49.568;11.000;2023-04-06T10:54:06;23.50;28.80
13093;DHT22;6612;49.568;11.000;2023-04-06T10:56:37;23.60;28.60
13093;DHT22;6612;49.568;11.000;2023-04-06T10:59:06;23.70;28.40
13093;DHT22;6612;49.568;11.000;2023-04-06T11:01:34;23.80;28.50
13093;DHT22;6612;49.568;11.000;2023-04-06T11:04:01;23.80;28.30
13093;DHT22;6612;49.568;11.000;2023-04-06T11:06:30;23.70;28.00
13093;DHT22;6612;49.568;11.000;2023-04-06T11:08:58;23.60;27.60
13093;DHT22;6612;49.568;11.000;2023-04-06T11:11:26;23.40;27.30
13093;DHT22;6612;49.568;11.000;2023-04-06T11:13:55;23.20;27.00
13093;DHT22;6612;49.568;11.000;2023-04-06T11:16:24;22.80;26.70
13093;DHT22;6612;49.568;11.000;2023-04-06T11:18:53;22.50;26.50
13093;DHT22;6612;49.568;11.000;2023-04-06T11:21:35;22.20;26.60
13093;DHT22;6612;49.568;11.000;2023-04-06T11:24:09;21.90;26.00
13093;DHT22;6612;49.568;11.000;2023-04-06T11:26:38;21.60;26.20
13093;DHT22;6612;49.568;11.000;2023-04-06T11:29:06;21.30;26.60
13093;DHT22;6612;49.568;11.000;2023-04-06T11:31:42;21.00;26.40
13093;DHT22;6612;49.568;11.000;2023-04-06T11:34:13;20.80;26.00
13093;DHT22;6612;49.568;11.000;2023-04-06T11:36:41;20.50;26.60
13093;DHT22;6612;49.568;11.000;2023-04-06T11:39:09;20.20;26.80
13093;DHT22;6612;49.568;11.000;2023-04-06T11:41:36;19.90;25.50
13093;DHT22;6612;49.568;11.000;2023-04-06T11:44:04;19.70;26.50
13093;DHT22;6612;49.568;11.000;2023-04-06T11:46:32;19.60;26.80
13093;DHT22;6612;49.568;11.000;2023-04-06T11:49:01;19.50;27.10
13093;DHT22;6612;49.568;11.000;2023-04-06T11:51:29;19.40;27.20
13093;DHT22;6612;49.568;11.000;2023-04-06T11:53:56;19.30;27.40
13093;DHT22;6612;49.568;11.000;2023-04-06T11:56:27;19.30;27.60
13093;DHT22;6612;49.568;11.000;2023-04-06T11:58:55;19.20;27.30
13093;DHT22;6612;49.568;11.000;2023-04-06T12:01:23;19.10;27.60
13093;DHT22;6612;49.568;11.000;2023-04-06T12:03:51;19.00;27.80
13093;DHT22;6612;49.568;11.000;2023-04-06T12:06:19;18.90;27.60
13093;DHT22;6612;49.568;11.000;2023-04-06T12:08:46;18.80;27.50
13093;DHT22;6612;49.568;11.000;2023-04-06T12:11:14;18.80;27.80
13093;DHT22;6612;49.568;11.000;2023-04-06T12:13:41;18.70;27.80
13093;DHT22;6612;49.568;11.000;2023-04-06T12:16:08;18.60;27.80
13093;DHT22;6612;49.568;11.000;2023-04-06T12:18:35;18.60;27.90
13093;DHT22;6612;49.568;11.000;2023-04-06T12:21:02;18.50;28.00
13093;DHT22;6612;49.568;11.000;2023-04-06T12:23:32;18.50;28.20
13093;DHT22;6612;49.568;11.000;2023-04-06T12:25:59;18.40;28.10
13093;DHT22;6612;49.568;11.000;2023-04-06T12:28:27;18.40;28.10
13093;DHT22;6612;49.568;11.000;2023-04-06T12:30:55;18.40;28.20
13093;DHT22;6612;49.568;11.000;2023-04-06T12:33:22;18.30;28.00
13093;DHT22;6612;49.568;11.000;2023-04-06T12:35:49;18.30;27.60
13093;DHT22;6612;49.568;11.000;2023-04-06T12:38:16;18.20;28.10
13093;DHT22;6612;49.568;11.000;2023-04-06T12:40:44;18.20;28.20
13093;DHT22;6612;49.568;11.000;2023-04-06T12:43:11;18.10;28.10
13093;DHT22;6612;49.568;11.000;2023-04-06T12:45:39;18.10;28.20
13093;DHT22;6612;49.568;11.000;2023-04-06T12:48:07;18.00;28.10
13093;DHT22;6612;49.568;11.000;2023-04-06T12:50:34;18.00;27.70
13093;DHT22;6612;49.568;11.000;2023-04-06T12:53:01;17.90;27.80
13093;DHT22;6612;49.568;11.000;2023-04-06T12:55:30;17.90;27.90
13093;DHT22;6612;49.568;11.000;2023-04-06T12:58:01;17.80;28.00
13093;DHT22;6612;49.568;11.000;2023-04-06T13:00:28;17.70;28.00
13093;DHT22;6612;49.568;11.000;2023-04-06T13:02:56;17.70;28.20
13093;DHT22;6612;49.568;11.000;2023-04-06T13:05:23;17.70;28.30
13093;DHT22;6612;49.568;11.000;2023-04-06T13:07:50;17.70;28.30
13093;DHT22;6612;49.568;11.000;2023-04-06T13:10:17;17.70;28.20
13093;DHT22;6612;49.568;11.000;2023-04-06T13:12:44;17.70;28.30
13093;DHT22;6612;49.568;11.000;2023-04-06T13:15:13;17.70;28.30
13093;DHT22;6612;49.568;11.000;2023-04-06T13:17:40;17.60;28.50
13093;DHT22;6612;49.568;11.000;2023-04-06T13:20:09;17.60;28.00
13093;DHT22;6612;49.568;11.000;2023-04-06T13:22:36;17.60;27.80
13093;DHT22;6612;49.568;11.000;2023-04-06T13:25:04;17.60;27.90
13093;DHT22;6612;49.568;11.000;2023-04-06T13:27:31;17.50;27.90
13093;DHT22;6612;49.568;11.000;2023-04-06T13:29:59;17.50;28.00
13093;DHT22;6612;49.568;11.000;2023-04-06T13:32:28;17.50;28.00
13093;DHT22;6612;49.568;11.000;2023-04-06T13:34:55;17.40;27.60
13093;DHT22;6612;49.568;11.000;2023-04-06T13:37:23;17.40;27.90
13093;DHT22;6612;49.568;11.000;2023-04-06T13:39:50;17.40;27.90
13093;DHT22;6612;49.568;11.000;2023-04-06T13:42:17;17.40;28.00
13093;DHT22;6612;49.568;11.000;2023-04-06T13:44:44;17.40;28.50
13093;DHT22;6612;49.568;11.000;2023-04-06T13:47:12;17.30;28.10
13093;DHT22;6612;49.568;11.000;2023-04-06T13:49:42;17.30;28.20
13093;DHT22;6612;49.568;11.000;2023-04-06T13:52:09;17.30;28.10
13093;DHT22;6612;49.568;11.000;2023-04-06T13:54:37;17.30;28.30
13093;DHT22;6612;49.568;11.000;2023-04-06T13:57:04;17.30;28.30
13093;DHT22;6612;49.568;11.000;2023-04-06T13:59:33;17.30;28.40
13093;DHT22;6612;49.568;11.000;2023-04-06T14:02:00;17.30;28.50
13093;DHT22;6612;49.568;11.000;2023-04-06T14:04:27;17.30;28.20
13093;DHT22;6612;49.568;11.000;2023-04-06T14:06:56;17.30;28.10
13093;DHT22;6612;49.568;11.000;2023-04-06T14:09:23;17.30;28.20
13093;DHT22;6612;49.568;11.000;2023-04-06T14:11:50;17.30;28.40
13093;DHT22;6612;49.568;11.000;2023-04-06T14:14:17;17.30;28.40
13093;DHT22;6612;49.568;11.000;2023-04-06T14:16:44;17.30;28.20
13093;DHT22;6612;49.568;11.000;2023-04-06T14:19:12;17.30;28.10
13093;DHT22;6612;49.568;11.000;2023-04-06T14:21:39;17.30;27.90
13093;DHT22;6612;49.568;11.000;2023-04-06T14:24:08;17.20;27.60
13093;DHT22;6612;49.568;11.000;2023-04-06T14:26:35;17.20;26.50
13093;DHT22;6612;49.568;11.000;2023-04-06T14:29:02;17.20;27.30
13093;DHT22;6612;49.568;11.000;2023-04-06T14:31:30;17.10;27.50
13093;DHT22;6612;49.568;11.000;2023-04-06T14:33:57;17.10;27.50
13093;DHT22;6612;49.568;11.000;2023-04-06T14:36:24;17.10;27.50
13093;DHT22;6612;49.568;11.000;2023-04-06T14:38:53;17.00;26.60
13093;DHT22;6612;49.568;11.000;2023-04-06T14:41:22;17.00;27.30
13093;DHT22;6612;49.568;11.000;2023-04-06T14:43:50;16.90;27.30
13093;DHT22;6612;49.568;11.000;2023-04-06T14:46:18;16.90;27.60
13093;DHT22;6612;49.568;11.000;2023-04-06T14:48:45;16.90;27.80
13093;DHT22;6612;49.568;11.000;2023-04-06T14:51:12;16.80;27.60
13093;DHT22;6612;49.568;11.000;2023-04-06T14:53:39;16.80;27.70
13093;DHT22;6612;49.568;11.000;2023-04-06T14:56:06;16.70;27.70
13093;DHT22;6612;49.568;11.000;2023-04-06T14:58:35;16.70;27.80
13093;DHT22;6612;49.568;11.000;2023-04-06T15:01:02;16.60;27.70
13093;DHT22;6612;49.568;11.000;2023-04-06T15:03:29;16.60;27.80
13093;DHT22;6612;49.568;11.000;2023-04-06T15:05:57;16.50;27.60
13093;DHT22;6612;49.568;11.000;2023-04-06T15:08:24;16.50;27.70
13093;DHT22;6612;49.568;11.000;2023-04-06T15:10:51;16.50;27.80
13093;DHT22;6612;49.568;11.000;2023-04-06T15:13:20;16.40;28.00
13093;DHT22;6612;49.568;11.000;2023-04-06T15:15:50;16.40;28.00
13093;DHT22;6612;49.568;11.000;2023-04-06T15:18:18;16.40;27.40
13093;DHT22;6612;49.568;11.000;2023-04-06T15:20:45;16.30;28.00
13093;DHT22;6612;49.568;11.000;2023-04-06T15:23:13;16.30;28.10
13093;DHT22;6612;49.568;11.000;2023-04-06T15:25:40;16.30;28.10
13093;DHT22;6612;49.568;11.000;2023-04-06T15:28:07;16.30;28.30
13093;DHT22;6612;49.568;11.000;2023-04-06T15:30:34;16.30;28.30
13093;DHT22;6612;49.568;11.000;2023-04-06T15:33:04;16.30;28.30
13093;DHT22;6612;49.568;11.000;2023-04-06T15:35:33;16.40;27.90
13093;DHT22;6612;49.568;11.000;2023-04-06T15:38:05;16.30;28.30
13093;DHT22;6612;49.568;11.000;2023-04-06T15:40:33;16.30;28.30